createdAt,value
2022-08-21T00:00:48.225Z,46.42
2022-08-21T00:01:50.344Z,46.71
2022-08-21T00:03:05.895Z,46.72
2022-08-21T00:04:09.413Z,46.62
2022-08-21T00:05:11.885Z,46.96
2022-08-21T00:06:15.953Z,47.06
2022-08-21T00:07:19.694Z,46.93
2022-08-21T00:08:22.115Z,46.83
2022-08-21T00:09:24.243Z,46.81
2022-08-21T00:10:27.373Z,47.00
2022-08-21T00:11:29.776Z,46.99
2022-08-21T00:12:32.394Z,47.15
2022-08-21T00:13:35.361Z,47.10
2022-08-21T00:14:37.957Z,47.09
2022-08-21T00:15:42.345Z,46.94
2022-08-21T00:16:44.568Z,47.14
2022-08-21T00:17:46.860Z,47.25
2022-08-21T00:18:50.553Z,47.36
2022-08-21T00:19:52.647Z,47.36
2022-08-21T00:20:55.341Z,47.41
2022-08-21T00:21:57.527Z,47.23
2022-08-21T00:22:59.704Z,47.07
2022-08-21T00:24:02.318Z,47.27
2022-08-21T00:25:07.644Z,47.53
2022-08-21T00:26:10.968Z,47.28
2022-08-21T00:27:13.182Z,47.23
2022-08-21T00:28:20.221Z,47.09
2022-08-21T00:29:24.624Z,47.48
2022-08-21T00:30:28.120Z,47.58
2022-08-21T00:31:32.432Z,47.39
2022-08-21T00:32:35.353Z,47.29
2022-08-21T00:33:37.508Z,47.51
2022-08-21T00:34:39.712Z,47.56
2022-08-21T00:35:44.026Z,47.13
2022-08-21T00:36:46.199Z,47.38
2022-08-21T00:37:48.351Z,47.16
2022-08-21T00:38:50.491Z,47.77
2022-08-21T00:39:52.647Z,47.49
2022-08-21T00:41:00.267Z,47.74
2022-08-21T00:42:16.226Z,47.73
2022-08-21T00:43:22.827Z,47.70
2022-08-21T00:44:26.454Z,47.69
2022-08-21T00:45:29.140Z,47.63
2022-08-21T00:46:31.962Z,47.43
2022-08-21T00:47:34.281Z,47.72
2022-08-21T00:48:37.002Z,47.76
2022-08-21T00:49:40.649Z,47.85
2022-08-21T00:50:55.016Z,47.75
2022-08-21T00:52:02.420Z,47.85
2022-08-21T00:53:07.906Z,47.69
2022-08-21T00:54:18.912Z,47.70
2022-08-21T00:55:33.043Z,47.43
2022-08-21T00:56:35.906Z,47.52
2022-08-21T00:57:47.553Z,47.76
2022-08-21T00:58:54.940Z,47.87
2022-08-21T01:00:01.237Z,47.74
2022-08-21T01:01:09.108Z,47.96
2022-08-21T01:02:11.569Z,47.71
2022-08-21T01:03:18.138Z,47.81
2022-08-21T01:04:22.317Z,47.91
2022-08-21T01:05:25.886Z,47.96
2022-08-21T01:06:28.116Z,47.83
2022-08-21T01:07:31.906Z,47.96
2022-08-21T01:08:35.774Z,47.69
2022-08-21T01:09:38.620Z,48.18
2022-08-21T01:10:41.528Z,47.76
2022-08-21T01:11:44.835Z,48.01
2022-08-21T01:12:47.158Z,48.09
2022-08-21T01:13:53.282Z,48.07
2022-08-21T01:14:55.553Z,48.09
2022-08-21T01:16:00.999Z,47.94
2022-08-21T01:17:04.471Z,47.92
2022-08-21T01:18:10.491Z,48.05
2022-08-21T01:19:14.171Z,48.01
2022-08-21T01:20:17.605Z,48.07
2022-08-21T01:21:27.814Z,48.12
2022-08-21T01:22:30.636Z,48.16
2022-08-21T01:23:34.668Z,48.15
2022-08-21T01:24:37.624Z,48.47
2022-08-21T01:25:39.851Z,48.36
2022-08-21T01:26:43.519Z,48.54
2022-08-21T01:27:46.050Z,48.53
2022-08-21T01:29:03.338Z,48.58
2022-08-21T01:30:21.057Z,48.43
2022-08-21T01:31:26.420Z,48.68
2022-08-21T01:32:28.846Z,48.94
2022-08-21T01:33:31.371Z,48.14
2022-08-21T01:34:37.611Z,48.72
2022-08-21T01:35:40.430Z,49.04
2022-08-21T01:36:43.883Z,48.96
2022-08-21T01:37:47.346Z,48.82
2022-08-21T01:38:51.824Z,49.15
2022-08-21T01:39:54.792Z,48.77
2022-08-21T01:40:57.610Z,48.77
2022-08-21T01:42:00.079Z,49.18
2022-08-21T01:43:03.485Z,48.54
2022-08-21T01:44:07.906Z,49.14
2022-08-21T01:45:11.891Z,48.94
2022-08-21T01:46:14.781Z,49.06
2022-08-21T01:47:17.723Z,49.29
2022-08-21T01:48:20.535Z,49.32
2022-08-21T01:49:22.623Z,48.97
2022-08-21T01:50:25.262Z,48.89
2022-08-21T01:51:27.482Z,49.07
2022-08-21T01:52:31.496Z,49.05
2022-08-21T01:53:36.874Z,49.11
2022-08-21T01:54:41.597Z,49.04
2022-08-21T01:55:44.625Z,49.21
2022-08-21T01:56:51.241Z,48.94
2022-08-21T01:57:53.894Z,49.13
2022-08-21T01:58:56.361Z,49.16
2022-08-21T01:59:58.543Z,49.13
2022-08-21T02:01:02.763Z,49.02
2022-08-21T02:02:05.598Z,49.07
2022-08-21T02:03:08.477Z,49.32
2022-08-21T02:04:11.655Z,49.33
2022-08-21T02:05:14.548Z,49.32
2022-08-21T02:06:19.278Z,49.16
2022-08-21T02:07:22.554Z,49.23
2022-08-21T02:08:24.996Z,49.03
2022-08-21T02:09:29.991Z,49.20
2022-08-21T02:10:34.089Z,49.45
2022-08-21T02:11:49.284Z,49.28
2022-08-21T02:12:58.036Z,49.58
2022-08-21T02:14:00.327Z,49.32
2022-08-21T02:15:05.500Z,49.24
2022-08-21T02:16:09.195Z,49.60
2022-08-21T02:17:11.251Z,49.10
2022-08-21T02:18:14.800Z,49.49
2022-08-21T02:19:25.477Z,49.63
2022-08-21T02:20:29.821Z,49.51
2022-08-21T02:21:34.436Z,49.23
2022-08-21T02:22:36.739Z,49.50
2022-08-21T02:23:39.140Z,49.40
2022-08-21T02:24:54.469Z,49.69
2022-08-21T02:25:59.281Z,49.75
2022-08-21T02:27:01.536Z,49.52
2022-08-21T02:28:12.025Z,49.66
2022-08-21T02:29:17.145Z,49.36
2022-08-21T02:30:29.351Z,49.19
2022-08-21T02:31:32.626Z,49.16
2022-08-21T02:32:34.813Z,49.37
2022-08-21T02:33:36.986Z,49.25
2022-08-21T02:34:40.923Z,49.24
2022-08-21T02:35:46.424Z,49.19
2022-08-21T02:36:59.536Z,48.56
2022-08-21T02:38:13.020Z,48.84
2022-08-21T02:39:16.525Z,48.49
2022-08-21T02:40:34.794Z,48.48
2022-08-21T02:41:37.061Z,48.35
2022-08-21T02:42:42.529Z,48.21
2022-08-21T02:43:45.105Z,48.00
2022-08-21T02:44:47.755Z,47.46
2022-08-21T02:45:50.863Z,47.51
2022-08-21T02:46:52.915Z,47.66
2022-08-21T02:48:10.323Z,47.07
2022-08-21T02:49:12.585Z,47.43
2022-08-21T02:50:14.955Z,46.72
2022-08-21T02:51:19.655Z,46.91
2022-08-21T02:52:25.287Z,46.92
2022-08-21T02:53:29.421Z,46.70
2022-08-21T02:54:31.795Z,46.52
2022-08-21T02:55:36.376Z,46.58
2022-08-21T02:56:39.954Z,46.32
2022-08-21T02:57:42.132Z,46.17
2022-08-21T02:58:54.139Z,45.51
2022-08-21T02:59:57.295Z,45.13
2022-08-21T03:00:59.640Z,45.39
2022-08-21T03:02:01.938Z,45.79
2022-08-21T03:03:04.874Z,45.86
2022-08-21T03:04:06.949Z,46.29
2022-08-21T03:05:11.964Z,46.54
2022-08-21T03:06:17.528Z,46.93
2022-08-21T03:07:19.685Z,47.15
2022-08-21T03:08:22.751Z,46.63
2022-08-21T03:09:29.507Z,46.75
2022-08-21T03:10:32.261Z,46.83
2022-08-21T03:11:34.560Z,46.91
2022-08-21T03:12:37.295Z,47.14
2022-08-21T03:13:40.160Z,46.86
2022-08-21T03:14:43.249Z,47.18
2022-08-21T03:15:45.843Z,46.61
2022-08-21T03:16:49.020Z,46.80
2022-08-21T03:17:55.792Z,46.74
2022-08-21T03:18:58.164Z,46.85
2022-08-21T03:20:00.784Z,46.71
2022-08-21T03:21:02.979Z,46.73
2022-08-21T03:22:05.244Z,46.87
2022-08-21T03:23:12.586Z,46.40
2022-08-21T03:24:16.456Z,46.33
2022-08-21T03:25:40.020Z,46.31
2022-08-21T03:26:43.124Z,46.17
2022-08-21T03:27:46.133Z,46.31
2022-08-21T03:28:51.847Z,46.36
2022-08-21T03:29:55.229Z,46.71
2022-08-21T03:30:57.408Z,46.07
2022-08-21T03:32:01.766Z,46.12
2022-08-21T03:33:06.096Z,45.76
2022-08-21T03:34:08.230Z,45.65
2022-08-21T03:35:11.068Z,45.53
2022-08-21T03:36:14.321Z,45.48
2022-08-21T03:37:19.209Z,45.52
2022-08-21T03:38:24.584Z,45.27
2022-08-21T03:39:28.768Z,45.20
2022-08-21T03:40:30.788Z,45.28
2022-08-21T03:41:32.888Z,45.43
2022-08-21T03:42:35.114Z,45.30
2022-08-21T03:43:37.603Z,45.00
2022-08-21T03:44:40.957Z,45.09
2022-08-21T03:45:43.189Z,44.44
2022-08-21T03:46:45.844Z,44.75
2022-08-21T03:48:05.182Z,44.82
2022-08-21T03:49:08.018Z,44.64
2022-08-21T03:50:10.585Z,44.43
2022-08-21T03:51:13.371Z,44.36
2022-08-21T03:52:16.644Z,44.31
2022-08-21T03:53:19.038Z,44.13
2022-08-21T03:54:21.463Z,44.04
2022-08-21T03:55:24.488Z,44.33
2022-08-21T03:56:26.546Z,44.02
2022-08-21T03:57:28.554Z,44.01
2022-08-21T03:58:30.855Z,43.74
2022-08-21T03:59:33.054Z,43.80
2022-08-21T04:00:35.442Z,43.66
2022-08-21T04:01:37.936Z,43.40
2022-08-21T04:02:40.892Z,42.85
2022-08-21T04:03:43.414Z,42.43
2022-08-21T04:04:45.590Z,42.09
2022-08-21T04:05:47.743Z,41.80
2022-08-21T04:06:50.961Z,41.30
2022-08-21T04:07:52.973Z,41.07
2022-08-21T04:08:55.795Z,40.90
2022-08-21T04:09:58.400Z,40.58
2022-08-21T04:11:01.067Z,40.76
2022-08-21T04:12:04.795Z,40.53
2022-08-21T04:13:08.356Z,39.98
2022-08-21T04:14:10.952Z,40.11
2022-08-21T04:15:14.438Z,39.41
2022-08-21T04:16:19.356Z,39.68
2022-08-21T04:17:22.645Z,39.52
2022-08-21T04:18:24.922Z,39.97
2022-08-21T04:19:27.746Z,39.66
2022-08-21T04:20:29.866Z,39.38
2022-08-21T04:21:33.160Z,38.82
2022-08-21T04:22:35.415Z,38.59
2022-08-21T04:23:38.325Z,38.47
2022-08-21T04:24:40.595Z,38.21
2022-08-21T04:25:42.731Z,37.72
2022-08-21T04:26:44.886Z,38.21
2022-08-21T04:27:47.494Z,38.14
2022-08-21T04:28:50.096Z,37.87
2022-08-21T04:29:52.284Z,37.77
2022-08-21T04:30:55.127Z,36.87
2022-08-21T04:31:57.440Z,37.02
2022-08-21T04:33:00.936Z,37.48
2022-08-21T04:34:04.654Z,37.42
2022-08-21T04:35:10.941Z,37.69
2022-08-21T04:36:13.097Z,37.40
2022-08-21T04:37:16.844Z,37.06
2022-08-21T04:38:20.205Z,36.85
2022-08-21T04:39:22.328Z,36.76
2022-08-21T04:40:31.738Z,36.78
2022-08-21T04:41:35.047Z,36.97
2022-08-21T04:42:46.983Z,36.55
2022-08-21T04:43:51.540Z,36.52
2022-08-21T04:44:53.604Z,36.58
2022-08-21T04:45:56.029Z,35.71
2022-08-21T04:47:00.271Z,36.36
2022-08-21T04:48:04.540Z,35.60
2022-08-21T04:49:06.741Z,35.41
2022-08-21T04:50:11.806Z,35.30
2022-08-21T04:51:36.261Z,35.28
2022-08-21T04:52:38.976Z,35.17
2022-08-21T04:54:04.043Z,34.62
2022-08-21T04:55:06.623Z,34.02
2022-08-21T04:56:16.920Z,33.75
2022-08-21T04:57:20.132Z,33.38
2022-08-21T04:58:25.036Z,32.87
2022-08-21T04:59:34.646Z,32.52
2022-08-21T05:00:38.153Z,31.73
2022-08-21T05:01:42.044Z,31.50
2022-08-21T05:02:44.386Z,31.31
2022-08-21T05:03:49.897Z,30.78
2022-08-21T05:04:55.777Z,30.00
2022-08-21T05:05:59.241Z,29.93
2022-08-21T05:07:05.147Z,29.08
2022-08-21T05:08:08.793Z,27.85
2022-08-21T05:09:14.166Z,26.87
2022-08-21T05:10:16.255Z,26.76
2022-08-21T05:11:18.314Z,26.34
2022-08-21T05:12:20.456Z,25.49
2022-08-21T05:13:23.473Z,25.82
2022-08-21T05:14:28.400Z,25.92
2022-08-21T05:15:33.293Z,26.20
2022-08-21T05:16:37.758Z,26.35
2022-08-21T05:17:40.988Z,26.15
2022-08-21T05:18:44.327Z,26.03
2022-08-21T05:19:46.614Z,25.74
2022-08-21T05:21:00.087Z,25.21
2022-08-21T05:22:05.483Z,24.60
2022-08-21T05:23:10.399Z,24.65
2022-08-21T05:24:13.019Z,25.04
2022-08-21T05:25:15.065Z,24.26
2022-08-21T05:26:21.658Z,24.22
2022-08-21T05:27:23.872Z,23.28
2022-08-21T05:28:29.925Z,24.46
2022-08-21T05:29:32.569Z,23.92
2022-08-21T05:30:35.905Z,23.74
2022-08-21T05:31:40.509Z,23.30
2022-08-21T05:32:42.627Z,22.77
2022-08-21T05:33:44.611Z,22.35
2022-08-21T05:34:47.882Z,22.71
2022-08-21T05:35:56.800Z,23.34
2022-08-21T05:36:58.831Z,22.61
2022-08-21T05:38:01.739Z,22.28
2022-08-21T05:39:04.664Z,22.70
2022-08-21T05:40:22.370Z,22.22
2022-08-21T05:41:25.421Z,21.92
2022-08-21T05:42:29.045Z,21.92
2022-08-21T05:43:31.130Z,21.69
2022-08-21T05:44:33.283Z,22.15
2022-08-21T05:45:42.656Z,22.01
2022-08-21T05:46:46.009Z,21.59
2022-08-21T05:47:48.054Z,21.62
2022-08-21T05:48:50.070Z,21.35
2022-08-21T05:49:52.184Z,21.20
2022-08-21T05:50:54.274Z,21.66
2022-08-21T05:51:56.342Z,21.11
2022-08-21T05:53:04.376Z,21.56
2022-08-21T05:54:09.602Z,21.69
2022-08-21T05:55:11.678Z,21.39
2022-08-21T05:56:14.636Z,21.35
2022-08-21T05:57:17.118Z,21.55
2022-08-21T05:58:21.780Z,21.50
2022-08-21T05:59:24.033Z,21.41
2022-08-21T06:00:26.153Z,20.78
2022-08-21T06:01:33.395Z,20.85
2022-08-21T06:02:35.521Z,20.66
2022-08-21T06:03:40.330Z,20.98
2022-08-21T06:04:42.358Z,21.25
2022-08-21T06:05:44.686Z,21.57
2022-08-21T06:06:47.797Z,21.38
2022-08-21T06:07:50.120Z,21.93
2022-08-21T06:08:52.204Z,22.54
2022-08-21T06:09:54.277Z,21.96
2022-08-21T06:10:58.721Z,22.38
2022-08-21T06:12:09.511Z,22.67
2022-08-21T06:13:12.002Z,22.07
2022-08-21T06:14:17.608Z,22.57
2022-08-21T06:15:20.210Z,22.31
2022-08-21T06:16:22.981Z,21.83
2022-08-21T06:17:25.038Z,22.82
2022-08-21T06:18:27.295Z,23.19
2022-08-21T06:19:29.772Z,22.62
2022-08-21T06:20:32.654Z,22.37
2022-08-21T06:21:35.141Z,21.70
2022-08-21T06:22:37.313Z,22.26
2022-08-21T06:23:39.631Z,22.29
2022-08-21T06:24:41.725Z,22.20
2022-08-21T06:25:45.264Z,22.11
2022-08-21T06:26:47.603Z,21.31
2022-08-21T06:27:50.168Z,21.31
2022-08-21T06:28:52.622Z,21.20
2022-08-21T06:29:54.739Z,21.50
2022-08-21T06:30:59.302Z,21.79
2022-08-21T06:32:01.681Z,21.59
2022-08-21T06:33:04.375Z,21.68
2022-08-21T06:34:06.423Z,21.47
2022-08-21T06:35:09.235Z,21.35
2022-08-21T06:36:11.444Z,21.37
2022-08-21T06:37:13.611Z,20.94
2022-08-21T06:38:20.653Z,21.42
2022-08-21T06:39:25.456Z,21.76
2022-08-21T06:40:34.963Z,21.96
2022-08-21T06:41:39.140Z,21.29
2022-08-21T06:42:42.679Z,20.67
2022-08-21T06:43:45.314Z,20.68
2022-08-21T06:44:49.008Z,20.18
2022-08-21T06:45:51.469Z,19.73
2022-08-21T06:46:53.678Z,19.93
2022-08-21T06:47:55.789Z,20.07
2022-08-21T06:48:58.491Z,20.18
2022-08-21T06:50:00.723Z,20.53
2022-08-21T06:51:03.745Z,20.34
2022-08-21T06:52:11.327Z,20.12
2022-08-21T06:53:16.552Z,20.20
2022-08-21T06:54:18.626Z,20.39
2022-08-21T06:55:21.711Z,19.99
2022-08-21T06:56:24.456Z,19.81
2022-08-21T06:57:26.965Z,20.08
2022-08-21T06:58:29.365Z,20.49
2022-08-21T06:59:32.877Z,19.83
2022-08-21T07:00:35.921Z,20.20
2022-08-21T07:01:38.130Z,21.36
2022-08-21T07:02:41.510Z,20.63
2022-08-21T07:03:44.758Z,19.82
2022-08-21T07:04:46.775Z,20.51
2022-08-21T07:05:49.170Z,19.85
2022-08-21T07:06:51.408Z,19.70
2022-08-21T07:07:53.595Z,19.67
2022-08-21T07:08:58.895Z,19.71
2022-08-21T07:10:01.300Z,19.45
2022-08-21T07:11:07.870Z,19.35
2022-08-21T07:12:11.417Z,19.09
2022-08-21T07:13:13.716Z,19.74
2022-08-21T07:14:20.370Z,20.31
2022-08-21T07:15:23.132Z,19.98
2022-08-21T07:16:26.161Z,19.76
2022-08-21T07:17:28.614Z,18.81
2022-08-21T07:18:30.860Z,19.25
2022-08-21T07:19:33.107Z,19.37
2022-08-21T07:20:36.023Z,19.31
2022-08-21T07:21:38.356Z,19.43
2022-08-21T07:22:41.945Z,20.17
2022-08-21T07:23:49.660Z,20.65
2022-08-21T07:24:51.963Z,19.80
2022-08-21T07:25:54.416Z,19.87
2022-08-21T07:26:57.025Z,19.96
2022-08-21T07:27:59.160Z,19.85
2022-08-21T07:29:01.309Z,20.61
2022-08-21T07:30:05.056Z,20.59
2022-08-21T07:31:07.600Z,20.63
2022-08-21T07:32:09.674Z,20.61
2022-08-21T07:33:12.891Z,19.95
2022-08-21T07:34:15.388Z,20.08
2022-08-21T07:35:18.585Z,20.71
2022-08-21T07:36:21.187Z,20.59
2022-08-21T07:37:23.257Z,21.01
2022-08-21T07:38:26.367Z,20.98
2022-08-21T07:39:28.752Z,20.59
2022-08-21T07:40:30.941Z,20.22
2022-08-21T07:41:33.263Z,20.35
2022-08-21T07:42:42.670Z,20.54
2022-08-21T07:43:46.195Z,20.19
2022-08-21T07:44:51.406Z,20.15
2022-08-21T07:45:59.036Z,20.28
2022-08-21T07:47:02.430Z,20.17
2022-08-21T07:48:07.192Z,20.72
2022-08-21T07:49:09.399Z,20.60
2022-08-21T07:50:13.389Z,20.45
2022-08-21T07:51:17.873Z,19.73
2022-08-21T07:52:21.092Z,19.67
2022-08-21T07:53:23.338Z,19.67
2022-08-21T07:54:33.990Z,19.72
2022-08-21T07:55:36.787Z,19.62
2022-08-21T07:56:39.148Z,20.47
2022-08-21T07:57:41.427Z,19.65
2022-08-21T07:58:43.635Z,19.88
2022-08-21T07:59:45.770Z,20.68
2022-08-21T08:00:48.071Z,20.70
2022-08-21T08:01:50.236Z,20.41
2022-08-21T08:02:54.245Z,20.48
2022-08-21T08:03:57.341Z,20.58
2022-08-21T08:05:02.105Z,20.03
2022-08-21T08:06:05.892Z,20.10
2022-08-21T08:07:08.662Z,20.15
2022-08-21T08:08:10.800Z,20.32
2022-08-21T08:09:13.571Z,19.89
2022-08-21T08:10:16.998Z,19.40
2022-08-21T08:11:19.506Z,19.48
2022-08-21T08:12:21.900Z,19.83
2022-08-21T08:13:24.289Z,19.34
2022-08-21T08:14:31.373Z,19.39
2022-08-21T08:15:37.522Z,19.11
2022-08-21T08:16:40.109Z,18.87
2022-08-21T08:17:42.611Z,18.96
2022-08-21T08:18:45.867Z,18.64
2022-08-21T08:19:49.076Z,19.12
2022-08-21T08:20:51.284Z,18.81
2022-08-21T08:22:00.633Z,19.28
2022-08-21T08:23:03.112Z,18.79
2022-08-21T08:24:19.432Z,18.94
2022-08-21T08:25:24.142Z,19.22
2022-08-21T08:26:26.261Z,19.74
2022-08-21T08:27:28.637Z,19.04
2022-08-21T08:28:33.011Z,19.01
2022-08-21T08:29:35.376Z,19.18
2022-08-21T08:30:38.753Z,19.01
2022-08-21T08:31:42.070Z,18.99
2022-08-21T08:32:44.442Z,19.37
2022-08-21T08:33:46.520Z,19.69
2022-08-21T08:34:49.919Z,19.51
2022-08-21T08:35:52.682Z,19.20
2022-08-21T08:36:55.582Z,19.35
2022-08-21T08:37:58.794Z,19.13
2022-08-21T08:39:06.337Z,19.78
2022-08-21T08:40:19.667Z,19.63
2022-08-21T08:41:23.959Z,20.02
2022-08-21T08:42:36.846Z,20.05
2022-08-21T08:43:39.692Z,19.76
2022-08-21T08:44:42.943Z,20.02
2022-08-21T08:45:49.631Z,20.27
2022-08-21T08:46:53.670Z,19.92
2022-08-21T08:48:03.951Z,20.35
2022-08-21T08:49:21.538Z,20.67
2022-08-21T08:50:29.509Z,20.90
2022-08-21T08:51:45.391Z,21.16
2022-08-21T08:53:04.331Z,21.03
2022-08-21T08:54:20.654Z,21.16
2022-08-21T08:55:27.893Z,21.43
2022-08-21T08:56:33.773Z,21.10
2022-08-21T08:57:36.842Z,20.89
2022-08-21T08:58:42.809Z,20.64
2022-08-21T08:59:49.075Z,21.24
2022-08-21T09:00:54.676Z,21.15
2022-08-21T09:01:57.012Z,20.99
2022-08-21T09:03:01.946Z,20.46
2022-08-21T09:04:04.343Z,21.10
2022-08-21T09:05:09.059Z,20.46
2022-08-21T09:06:30.156Z,20.64
2022-08-21T09:08:09.344Z,20.71
2022-08-21T09:09:28.258Z,21.29
2022-08-21T09:10:56.434Z,21.07
2022-08-21T09:12:10.029Z,20.98
2022-08-21T09:13:24.265Z,20.92
2022-08-21T09:14:41.558Z,20.96
2022-08-21T09:15:59.338Z,20.54
2022-08-21T09:17:33.033Z,21.04
2022-08-21T09:18:56.135Z,21.32
2022-08-21T09:20:01.278Z,21.46
2022-08-21T09:21:15.192Z,21.56
2022-08-21T09:24:21.097Z,21.52
2022-08-21T09:24:34.169Z,21.45
2022-08-21T09:25:57.072Z,21.63
2022-08-21T09:27:09.475Z,21.12
2022-08-21T09:28:13.855Z,21.10
2022-08-21T09:29:25.941Z,21.30
2022-08-21T09:30:32.377Z,21.34
2022-08-21T09:31:39.949Z,21.34
2022-08-21T09:32:42.548Z,21.59
2022-08-21T09:33:44.676Z,21.11
2022-08-21T09:35:06.389Z,20.96
2022-08-21T09:36:09.194Z,20.93
2022-08-21T09:37:19.065Z,21.00
2022-08-21T09:38:34.419Z,21.04
2022-08-21T09:39:43.484Z,20.89
2022-08-21T09:40:59.167Z,21.26
2022-08-21T09:42:06.954Z,21.05
2022-08-21T09:43:27.665Z,21.24
2022-08-21T09:44:33.007Z,21.37
2022-08-21T09:45:36.581Z,21.34
2022-08-21T09:46:38.754Z,20.95
2022-08-21T09:47:42.370Z,21.62
2022-08-21T09:48:47.724Z,21.36
2022-08-21T09:49:50.526Z,21.48
2022-08-21T09:50:54.587Z,21.91
2022-08-21T09:52:00.778Z,21.94
2022-08-21T09:53:04.298Z,21.87
2022-08-21T09:54:06.271Z,21.72
2022-08-21T09:55:38.204Z,21.46
2022-08-21T09:57:32.031Z,21.16
2022-08-21T09:58:36.754Z,21.09
2022-08-21T09:59:39.356Z,21.34
2022-08-21T10:00:41.571Z,21.26
2022-08-21T10:01:46.857Z,21.22
2022-08-21T10:02:49.000Z,21.08
2022-08-21T10:04:09.107Z,21.31
2022-08-21T10:05:19.976Z,21.39
2022-08-21T10:06:26.166Z,21.71
2022-08-21T10:07:32.449Z,21.60
2022-08-21T10:08:36.677Z,21.50
2022-08-21T10:09:39.014Z,21.75
2022-08-21T10:10:41.220Z,21.75
2022-08-21T10:12:11.137Z,21.43
2022-08-21T10:13:16.833Z,21.71
2022-08-21T10:14:27.893Z,22.02
2022-08-21T10:16:09.050Z,22.00
2022-08-21T10:17:51.903Z,21.89
2022-08-21T10:19:38.442Z,22.06
2022-08-21T10:21:01.938Z,22.22
2022-08-21T10:22:21.345Z,22.12
2022-08-21T10:23:38.277Z,22.21
2022-08-21T10:25:18.759Z,22.14
2022-08-21T10:26:23.686Z,22.42
2022-08-21T10:27:28.532Z,22.31
2022-08-21T10:28:50.968Z,22.45
2022-08-21T10:30:03.004Z,22.34
2022-08-21T10:31:22.632Z,22.44
2022-08-21T10:32:43.079Z,22.37
2022-08-21T10:33:54.441Z,22.42
2022-08-21T10:35:12.552Z,22.46
2022-08-21T10:36:29.703Z,22.51
2022-08-21T10:37:57.399Z,22.48
2022-08-21T10:39:36.987Z,22.65
2022-08-21T10:41:05.881Z,22.38
2022-08-21T10:42:36.183Z,22.42
2022-08-21T10:44:00.718Z,22.53
2022-08-21T10:45:15.067Z,22.04
2022-08-21T10:46:34.967Z,22.08
2022-08-21T10:47:43.132Z,22.05
2022-08-21T10:49:20.421Z,21.82
2022-08-21T10:50:28.715Z,21.50
2022-08-21T10:51:46.231Z,21.89
2022-08-21T10:53:06.546Z,21.96
2022-08-21T10:54:35.812Z,22.15
2022-08-21T10:55:52.601Z,22.15
2022-08-21T10:57:03.410Z,22.37
2022-08-21T10:58:15.492Z,22.22
2022-08-21T10:59:27.050Z,22.28
2022-08-21T11:00:56.528Z,22.54
2022-08-21T11:02:03.227Z,22.49
2022-08-21T11:03:09.290Z,22.50
2022-08-21T11:04:30.044Z,22.56
2022-08-21T11:05:53.188Z,22.65
2022-08-21T11:07:04.613Z,22.36
2022-08-21T11:08:20.585Z,22.53
2022-08-21T11:09:26.859Z,22.33
2022-08-21T11:10:51.313Z,22.66
2022-08-21T11:12:11.499Z,22.91
2022-08-21T11:13:37.297Z,22.95
2022-08-21T11:14:53.038Z,23.30
2022-08-21T11:16:06.309Z,23.23
2022-08-21T11:17:21.777Z,23.43
2022-08-21T11:18:42.625Z,23.38
2022-08-21T11:19:58.131Z,23.43
2022-08-21T11:21:41.618Z,23.72
2022-08-21T11:23:04.551Z,23.83
2022-08-21T11:24:18.542Z,23.63
2022-08-21T11:25:46.348Z,23.56
2022-08-21T11:27:29.845Z,23.53
2022-08-21T11:28:44.057Z,23.42
2022-08-21T11:29:51.638Z,23.39
2022-08-21T11:31:08.568Z,23.52
2022-08-21T11:32:46.343Z,23.33
2022-08-21T11:34:00.484Z,23.43
2022-08-21T11:35:41.644Z,23.53
2022-08-21T11:36:49.662Z,23.73
2022-08-21T11:38:25.508Z,23.65
2022-08-21T11:39:46.989Z,23.46
2022-08-21T11:41:08.052Z,23.83
2022-08-21T11:42:16.172Z,23.81
2022-08-21T11:43:23.958Z,23.81
2022-08-21T11:44:39.357Z,23.91
2022-08-21T11:45:54.543Z,24.16
2022-08-21T11:47:13.366Z,24.16
2022-08-21T11:48:50.273Z,24.18
2022-08-21T11:49:58.203Z,24.28
2022-08-21T11:51:05.466Z,23.80
2022-08-21T11:52:18.812Z,24.25
2022-08-21T11:53:41.163Z,24.02
2022-08-21T11:54:50.888Z,24.13
2022-08-21T11:56:03.256Z,24.22
2022-08-21T11:57:26.328Z,24.34
2022-08-21T11:58:34.376Z,24.08
2022-08-21T12:00:06.301Z,24.32
2022-08-21T12:01:23.001Z,24.23
2022-08-21T12:02:42.400Z,24.41
2022-08-21T12:03:58.463Z,24.48
2022-08-21T12:05:09.207Z,24.60
2022-08-21T12:06:24.541Z,24.61
2022-08-21T12:07:36.703Z,24.67
2022-08-21T12:08:45.103Z,24.72
2022-08-21T12:09:56.304Z,24.76
2022-08-21T12:11:30.518Z,24.64
2022-08-21T12:12:36.228Z,24.74
2022-08-21T12:13:53.364Z,24.72
2022-08-21T12:15:16.232Z,24.60
2022-08-21T12:16:39.582Z,24.84
2022-08-21T12:17:53.170Z,24.71
2022-08-21T12:19:12.147Z,24.84
2022-08-21T12:20:22.972Z,24.72
2022-08-21T12:21:28.368Z,24.64
2022-08-21T12:22:41.896Z,24.93
2022-08-21T12:23:46.788Z,24.71
2022-08-21T12:25:04.404Z,24.49
2022-08-21T12:26:12.055Z,24.47
2022-08-21T12:27:26.593Z,24.56
2022-08-21T12:28:31.672Z,24.50
2022-08-21T12:29:38.461Z,24.47
2022-08-21T12:30:47.030Z,24.30
2022-08-21T12:32:00.485Z,24.41
2022-08-21T12:33:20.139Z,24.27
2022-08-21T12:34:29.689Z,24.21
2022-08-21T12:35:39.753Z,24.07
2022-08-21T12:36:56.198Z,23.89
2022-08-21T12:38:03.432Z,24.31
2022-08-21T12:39:12.706Z,24.18
2022-08-21T12:40:42.928Z,24.02
2022-08-21T12:41:54.040Z,24.33
2022-08-21T12:43:00.793Z,24.18
2022-08-21T12:44:11.704Z,24.08
2022-08-21T12:45:33.897Z,24.15
2022-08-21T12:46:52.368Z,24.06
2022-08-21T12:47:59.652Z,24.37
2022-08-21T12:49:12.066Z,24.14
2022-08-21T12:50:21.944Z,24.22
2022-08-21T12:51:33.971Z,23.97
2022-08-21T12:52:49.773Z,24.18
2022-08-21T12:53:55.754Z,24.05
2022-08-21T12:54:57.859Z,24.40
2022-08-21T12:56:11.756Z,24.47
2022-08-21T12:57:23.325Z,24.18
2022-08-21T12:58:26.047Z,24.49
2022-08-21T12:59:28.617Z,24.53
2022-08-21T13:00:31.615Z,24.51
2022-08-21T13:01:45.060Z,24.36
2022-08-21T13:02:50.659Z,24.42
2022-08-21T13:04:04.189Z,24.47
2022-08-21T13:05:12.979Z,24.20
2022-08-21T13:06:19.856Z,24.29
2022-08-21T13:07:29.273Z,24.49
2022-08-21T13:08:37.585Z,24.51
2022-08-21T13:09:50.093Z,24.61
2022-08-21T13:11:00.712Z,24.37
2022-08-21T13:12:18.980Z,24.57
2022-08-21T13:13:28.447Z,24.51
2022-08-21T13:14:45.377Z,24.63
2022-08-21T13:15:48.897Z,24.66
2022-08-21T13:16:58.524Z,24.61
2022-08-21T13:18:03.410Z,24.61
2022-08-21T13:19:08.481Z,24.58
2022-08-21T13:20:24.654Z,24.60
2022-08-21T13:21:32.971Z,24.60
2022-08-21T13:22:42.508Z,24.66
2022-08-21T13:23:49.306Z,24.52
2022-08-21T13:24:51.524Z,24.67
2022-08-21T13:25:54.487Z,24.84
2022-08-21T13:26:57.373Z,24.56
2022-08-21T13:28:05.457Z,24.68
2022-08-21T13:29:12.309Z,24.74
2022-08-21T13:30:21.653Z,24.95
2022-08-21T13:31:29.128Z,24.67
2022-08-21T13:32:34.330Z,24.74
2022-08-21T13:33:37.544Z,24.41
2022-08-21T13:34:40.324Z,24.59
2022-08-21T13:36:04.926Z,24.31
2022-08-21T13:37:09.998Z,24.30
2022-08-21T13:38:12.478Z,24.48
2022-08-21T13:39:19.476Z,24.32
2022-08-21T13:40:45.266Z,24.30
2022-08-21T13:41:50.486Z,24.17
2022-08-21T13:42:53.486Z,24.05
2022-08-21T13:44:03.687Z,23.70
2022-08-21T13:45:14.916Z,23.69
2022-08-21T13:46:19.267Z,23.69
2022-08-21T13:47:21.774Z,23.63
2022-08-21T13:48:27.627Z,23.90
2022-08-21T13:49:33.650Z,23.72
2022-08-21T13:50:39.553Z,23.57
2022-08-21T13:51:46.162Z,23.80
2022-08-21T13:53:20.288Z,23.63
2022-08-21T13:54:40.893Z,23.89
2022-08-21T13:55:44.560Z,23.97
2022-08-21T13:56:47.922Z,23.87
2022-08-21T13:58:00.401Z,23.88
2022-08-21T13:59:05.171Z,23.90
2022-08-21T14:00:17.829Z,23.82
2022-08-21T14:01:25.143Z,23.82
2022-08-21T14:02:27.363Z,24.14
2022-08-21T14:03:43.838Z,24.22
2022-08-21T14:04:53.083Z,24.35
2022-08-21T14:05:55.785Z,24.34
2022-08-21T14:06:58.254Z,24.41
2022-08-21T14:08:09.381Z,24.45
2022-08-21T14:09:16.928Z,24.65
2022-08-21T14:10:21.893Z,24.58
2022-08-21T14:11:24.493Z,24.75
2022-08-21T14:12:30.804Z,24.52
2022-08-21T14:13:43.487Z,24.74
2022-08-21T14:14:46.385Z,24.82
2022-08-21T14:15:58.127Z,24.92
2022-08-21T14:17:24.333Z,24.80
2022-08-21T14:18:28.230Z,24.65
2022-08-21T14:19:50.490Z,24.87
2022-08-21T14:20:53.602Z,24.76
2022-08-21T14:21:56.102Z,24.69
2022-08-21T14:22:58.870Z,24.95
2022-08-21T14:24:24.781Z,25.03
2022-08-21T14:25:26.967Z,25.00
2022-08-21T14:26:29.168Z,24.95
2022-08-21T14:27:32.788Z,24.91
2022-08-21T14:28:42.999Z,25.19
2022-08-21T14:29:45.250Z,25.15